Terminal Aerodrome Forecast
Issued by NWS

Home | Current Version | Previous Version | Text Only | Print | Product List | Glossary On
Versions: 1 2 3 4 5 6 7 8 9 10 11 12 13
000
FTUS46 KPDT 200520
TAFBDN
TAF
KBDN 200520Z 2006/2106 VRB05KT P6SM SCT250
     FM200900 22004KT P6SM SCT250
     FM201600 VRB02KT P6SM SCT250
     FM201900 35008G15KT P6SM SCT250
     FM210400 VRB04KT P6SM FEW250=

USA.gov is the U.S. government's official web portal to all federal, state and local government web resources and services.